sensor_id;sensor_type;location;lat;lon;timestamp;P1;durP1;ratioP1;P2;durP2;ratioP2
64826;SDS011;51265;53.972;12.286;2023-05-29T00:01:38;8.30;;;4.45;;
64826;SDS011;51265;53.972;12.286;2023-05-29T00:04:06;10.05;;;4.88;;
64826;SDS011;51265;53.972;12.286;2023-05-29T00:06:32;14.60;;;6.18;;
64826;SDS011;51265;53.972;12.286;2023-05-29T00:08:58;8.35;;;4.30;;
64826;SDS011;51265;53.972;12.286;2023-05-29T00:11:25;12.77;;;5.68;;
64826;SDS011;51265;53.972;12.286;2023-05-29T00:13:51;9.50;;;5.50;;
64826;SDS011;51265;53.972;12.286;2023-05-29T00:16:17;9.27;;;5.20;;
64826;SDS011;51265;53.972;12.286;2023-05-29T00:18:43;11.60;;;5.97;;
64826;SDS011;51265;53.972;12.286;2023-05-29T00:21:13;9.82;;;5.70;;
64826;SDS011;51265;53.972;12.286;2023-05-29T00:23:40;11.73;;;5.57;;
64826;SDS011;51265;53.972;12.286;2023-05-29T00:26:06;9.75;;;5.65;;
64826;SDS011;51265;53.972;12.286;2023-05-29T00:28:33;11.88;;;6.10;;
64826;SDS011;51265;53.972;12.286;2023-05-29T00:31:00;11.75;;;5.65;;
64826;SDS011;51265;53.972;12.286;2023-05-29T00:33:27;9.07;;;5.78;;
64826;SDS011;51265;53.972;12.286;2023-05-29T00:35:53;14.15;;;5.72;;
64826;SDS011;51265;53.972;12.286;2023-05-29T00:38:19;12.20;;;5.88;;
64826;SDS011;51265;53.972;12.286;2023-05-29T00:40:46;13.15;;;5.97;;
64826;SDS011;51265;53.972;12.286;2023-05-29T00:43:12;13.75;;;6.68;;
64826;SDS011;51265;53.972;12.286;2023-05-29T00:45:44;13.23;;;6.35;;
64826;SDS011;51265;53.972;12.286;2023-05-29T00:48:10;13.07;;;5.75;;
64826;SDS011;51265;53.972;12.286;2023-05-29T00:50:37;13.23;;;6.75;;
64826;SDS011;51265;53.972;12.286;2023-05-29T00:53:04;15.02;;;6.53;;
64826;SDS011;51265;53.972;12.286;2023-05-29T00:55:32;10.15;;;6.32;;
64826;SDS011;51265;53.972;12.286;2023-05-29T00:57:59;15.20;;;6.88;;
64826;SDS011;51265;53.972;12.286;2023-05-29T01:00:25;17.80;;;7.35;;
64826;SDS011;51265;53.972;12.286;2023-05-29T01:02:52;13.57;;;6.93;;
64826;SDS011;51265;53.972;12.286;2023-05-29T01:05:18;15.52;;;7.30;;
64826;SDS011;51265;53.972;12.286;2023-05-29T01:07:45;14.70;;;7.65;;
64826;SDS011;51265;53.972;12.286;2023-05-29T01:10:12;13.43;;;7.70;;
64826;SDS011;51265;53.972;12.286;2023-05-29T01:12:40;18.75;;;7.75;;
64826;SDS011;51265;53.972;12.286;2023-05-29T01:15:24;23.65;;;8.10;;
64826;SDS011;51265;53.972;12.286;2023-05-29T01:21:03;16.85;;;7.55;;
64826;SDS011;51265;53.972;12.286;2023-05-29T01:23:44;20.40;;;7.90;;
64826;SDS011;51265;53.972;12.286;2023-05-29T01:29:18;15.77;;;8.50;;
64826;SDS011;51265;53.972;12.286;2023-05-29T01:31:46;16.17;;;7.93;;
64826;SDS011;51265;53.972;12.286;2023-05-29T01:34:15;14.80;;;8.15;;
64826;SDS011;51265;53.972;12.286;2023-05-29T01:36:48;18.67;;;8.07;;
64826;SDS011;51265;53.972;12.286;2023-05-29T01:39:14;14.82;;;8.60;;
64826;SDS011;51265;53.972;12.286;2023-05-29T01:41:41;18.52;;;7.18;;
64826;SDS011;51265;53.972;12.286;2023-05-29T01:44:11;16.08;;;7.75;;
64826;SDS011;51265;53.972;12.286;2023-05-29T01:46:39;17.70;;;8.63;;
64826;SDS011;51265;53.972;12.286;2023-05-29T01:49:07;19.13;;;8.07;;
64826;SDS011;51265;53.972;12.286;2023-05-29T01:51:35;19.48;;;7.53;;
64826;SDS011;51265;53.972;12.286;2023-05-29T01:54:01;22.13;;;8.23;;
64826;SDS011;51265;53.972;12.286;2023-05-29T01:56:28;21.33;;;8.77;;
64826;SDS011;51265;53.972;12.286;2023-05-29T01:58:55;17.92;;;8.65;;
64826;SDS011;51265;53.972;12.286;2023-05-29T02:01:22;19.05;;;7.85;;
64826;SDS011;51265;53.972;12.286;2023-05-29T02:03:49;20.25;;;7.70;;
64826;SDS011;51265;53.972;12.286;2023-05-29T02:06:16;23.63;;;6.88;;
64826;SDS011;51265;53.972;12.286;2023-05-29T02:08:43;15.70;;;7.20;;
64826;SDS011;51265;53.972;12.286;2023-05-29T02:11:09;12.98;;;6.32;;
64826;SDS011;51265;53.972;12.286;2023-05-29T02:13:35;20.55;;;6.93;;
64826;SDS011;51265;53.972;12.286;2023-05-29T02:16:01;15.88;;;6.30;;
64826;SDS011;51265;53.972;12.286;2023-05-29T02:18:27;15.35;;;6.30;;
64826;SDS011;51265;53.972;12.286;2023-05-29T02:20:54;21.13;;;6.18;;
64826;SDS011;51265;53.972;12.286;2023-05-29T02:23:21;17.38;;;5.68;;
64826;SDS011;51265;53.972;12.286;2023-05-29T02:25:50;16.48;;;6.75;;
64826;SDS011;51265;53.972;12.286;2023-05-29T02:28:31;18.77;;;5.38;;
64826;SDS011;51265;53.972;12.286;2023-05-29T02:30:58;17.92;;;5.28;;
64826;SDS011;51265;53.972;12.286;2023-05-29T02:33:24;18.23;;;5.45;;
64826;SDS011;51265;53.972;12.286;2023-05-29T02:35:53;17.40;;;5.50;;
64826;SDS011;51265;53.972;12.286;2023-05-29T02:38:19;18.15;;;5.22;;
64826;SDS011;51265;53.972;12.286;2023-05-29T02:40:46;19.23;;;5.57;;
64826;SDS011;51265;53.972;12.286;2023-05-29T02:43:12;21.00;;;4.72;;
64826;SDS011;51265;53.972;12.286;2023-05-29T02:45:39;20.05;;;4.95;;
64826;SDS011;51265;53.972;12.286;2023-05-29T02:48:05;11.65;;;4.70;;
64826;SDS011;51265;53.972;12.286;2023-05-29T02:50:32;15.02;;;4.13;;
64826;SDS011;51265;53.972;12.286;2023-05-29T02:52:58;14.40;;;4.53;;
64826;SDS011;51265;53.972;12.286;2023-05-29T02:55:24;19.10;;;4.30;;
64826;SDS011;51265;53.972;12.286;2023-05-29T02:57:50;13.18;;;4.18;;
64826;SDS011;51265;53.972;12.286;2023-05-29T03:00:19;12.75;;;4.07;;
64826;SDS011;51265;53.972;12.286;2023-05-29T03:02:46;14.57;;;3.90;;
64826;SDS011;51265;53.972;12.286;2023-05-29T03:05:12;15.98;;;3.97;;
64826;SDS011;51265;53.972;12.286;2023-05-29T03:07:39;13.93;;;3.75;;
64826;SDS011;51265;53.972;12.286;2023-05-29T03:10:05;11.70;;;3.95;;
64826;SDS011;51265;53.972;12.286;2023-05-29T03:12:32;12.90;;;3.13;;
64826;SDS011;51265;53.972;12.286;2023-05-29T03:14:59;21.00;;;4.32;;
64826;SDS011;51265;53.972;12.286;2023-05-29T03:17:27;12.93;;;3.55;;
64826;SDS011;51265;53.972;12.286;2023-05-29T03:19:56;11.98;;;3.38;;
64826;SDS011;51265;53.972;12.286;2023-05-29T03:22:23;13.68;;;3.28;;
64826;SDS011;51265;53.972;12.286;2023-05-29T03:24:49;12.02;;;3.60;;
64826;SDS011;51265;53.972;12.286;2023-05-29T03:27:17;16.27;;;3.67;;
64826;SDS011;51265;53.972;12.286;2023-05-29T03:29:45;13.27;;;3.28;;
64826;SDS011;51265;53.972;12.286;2023-05-29T03:32:11;16.38;;;3.08;;
64826;SDS011;51265;53.972;12.286;2023-05-29T03:34:37;13.20;;;2.78;;
64826;SDS011;51265;53.972;12.286;2023-05-29T03:37:05;13.68;;;3.13;;
64826;SDS011;51265;53.972;12.286;2023-05-29T03:39:32;17.17;;;3.15;;
64826;SDS011;51265;53.972;12.286;2023-05-29T03:41:58;13.95;;;3.15;;
64826;SDS011;51265;53.972;12.286;2023-05-29T03:44:25;18.48;;;3.20;;
64826;SDS011;51265;53.972;12.286;2023-05-29T03:46:51;15.52;;;3.35;;
64826;SDS011;51265;53.972;12.286;2023-05-29T03:49:17;13.57;;;3.42;;
64826;SDS011;51265;53.972;12.286;2023-05-29T03:51:43;15.38;;;3.08;;
64826;SDS011;51265;53.972;12.286;2023-05-29T03:54:10;10.50;;;2.88;;
64826;SDS011;51265;53.972;12.286;2023-05-29T03:56:37;16.00;;;2.83;;
64826;SDS011;51265;53.972;12.286;2023-05-29T03:59:04;14.60;;;2.95;;
64826;SDS011;51265;53.972;12.286;2023-05-29T04:01:31;15.30;;;3.13;;
64826;SDS011;51265;53.972;12.286;2023-05-29T04:03:57;13.95;;;3.00;;
64826;SDS011;51265;53.972;12.286;2023-05-29T04:06:24;12.73;;;2.92;;
64826;SDS011;51265;53.972;12.286;2023-05-29T04:08:50;15.73;;;2.72;;
64826;SDS011;51265;53.972;12.286;2023-05-29T04:11:16;15.52;;;2.70;;
64826;SDS011;51265;53.972;12.286;2023-05-29T04:13:43;14.75;;;3.00;;
64826;SDS011;51265;53.972;12.286;2023-05-29T04:16:10;16.13;;;2.88;;
64826;SDS011;51265;53.972;12.286;2023-05-29T04:18:37;18.48;;;3.13;;
64826;SDS011;51265;53.972;12.286;2023-05-29T04:21:04;15.25;;;3.08;;
64826;SDS011;51265;53.972;12.286;2023-05-29T04:23:31;11.05;;;2.75;;
64826;SDS011;51265;53.972;12.286;2023-05-29T04:25:58;12.88;;;2.75;;
64826;SDS011;51265;53.972;12.286;2023-05-29T04:28:27;14.45;;;2.55;;
64826;SDS011;51265;53.972;12.286;2023-05-29T04:30:54;12.70;;;2.42;;
64826;SDS011;51265;53.972;12.286;2023-05-29T04:33:23;11.25;;;2.92;;
64826;SDS011;51265;53.972;12.286;2023-05-29T04:35:51;16.40;;;2.55;;
64826;SDS011;51265;53.972;12.286;2023-05-29T04:38:18;12.50;;;2.53;;
64826;SDS011;51265;53.972;12.286;2023-05-29T04:40:51;14.73;;;2.87;;
64826;SDS011;51265;53.972;12.286;2023-05-29T04:43:19;14.25;;;3.05;;
64826;SDS011;51265;53.972;12.286;2023-05-29T04:45:59;11.15;;;2.83;;
64826;SDS011;51265;53.972;12.286;2023-05-29T04:48:26;16.10;;;2.70;;
64826;SDS011;51265;53.972;12.286;2023-05-29T04:50:52;15.88;;;3.25;;
64826;SDS011;51265;53.972;12.286;2023-05-29T04:53:18;17.73;;;2.50;;
64826;SDS011;51265;53.972;12.286;2023-05-29T04:55:45;12.23;;;2.83;;
64826;SDS011;51265;53.972;12.286;2023-05-29T04:58:11;19.05;;;3.33;;
64826;SDS011;51265;53.972;12.286;2023-05-29T05:00:40;11.32;;;2.25;;
64826;SDS011;51265;53.972;12.286;2023-05-29T05:03:06;12.57;;;2.40;;
64826;SDS011;51265;53.972;12.286;2023-05-29T05:05:33;16.75;;;3.30;;
64826;SDS011;51265;53.972;12.286;2023-05-29T05:08:01;14.68;;;2.72;;
64826;SDS011;51265;53.972;12.286;2023-05-29T05:10:28;16.23;;;2.78;;
64826;SDS011;51265;53.972;12.286;2023-05-29T05:12:55;15.50;;;3.10;;
64826;SDS011;51265;53.972;12.286;2023-05-29T05:15:22;15.98;;;2.42;;
64826;SDS011;51265;53.972;12.286;2023-05-29T05:17:48;14.75;;;2.70;;
64826;SDS011;51265;53.972;12.286;2023-05-29T05:20:14;11.85;;;2.30;;
64826;SDS011;51265;53.972;12.286;2023-05-29T05:22:41;18.50;;;3.35;;
64826;SDS011;51265;53.972;12.286;2023-05-29T05:25:07;13.05;;;2.65;;
64826;SDS011;51265;53.972;12.286;2023-05-29T05:27:33;16.55;;;2.72;;
64826;SDS011;51265;53.972;12.286;2023-05-29T05:30:03;15.32;;;2.50;;
64826;SDS011;51265;53.972;12.286;2023-05-29T05:32:30;17.33;;;3.15;;
64826;SDS011;51265;53.972;12.286;2023-05-29T05:35:02;12.10;;;2.47;;
64826;SDS011;51265;53.972;12.286;2023-05-29T05:37:29;18.58;;;2.85;;
64826;SDS011;51265;53.972;12.286;2023-05-29T05:39:56;22.13;;;3.67;;
64826;SDS011;51265;53.972;12.286;2023-05-29T05:42:24;19.75;;;3.13;;
64826;SDS011;51265;53.972;12.286;2023-05-29T05:44:55;14.02;;;3.10;;
64826;SDS011;51265;53.972;12.286;2023-05-29T05:47:22;19.92;;;3.25;;
64826;SDS011;51265;53.972;12.286;2023-05-29T05:49:48;17.70;;;2.92;;
64826;SDS011;51265;53.972;12.286;2023-05-29T05:52:18;16.98;;;3.13;;
64826;SDS011;51265;53.972;12.286;2023-05-29T05:54:45;20.70;;;2.72;;
64826;SDS011;51265;53.972;12.286;2023-05-29T05:57:13;15.63;;;3.03;;
64826;SDS011;51265;53.972;12.286;2023-05-29T05:59:39;16.02;;;3.35;;
64826;SDS011;51265;53.972;12.286;2023-05-29T06:02:06;10.40;;;2.40;;
64826;SDS011;51265;53.972;12.286;2023-05-29T06:04:32;15.85;;;2.88;;
64826;SDS011;51265;53.972;12.286;2023-05-29T06:06:59;14.43;;;3.28;;
64826;SDS011;51265;53.972;12.286;2023-05-29T06:09:25;14.48;;;2.65;;
64826;SDS011;51265;53.972;12.286;2023-05-29T06:11:52;15.13;;;2.90;;
64826;SDS011;51265;53.972;12.286;2023-05-29T06:14:19;17.25;;;3.25;;
64826;SDS011;51265;53.972;12.286;2023-05-29T06:16:45;18.85;;;3.40;;
64826;SDS011;51265;53.972;12.286;2023-05-29T06:19:11;12.05;;;3.00;;
64826;SDS011;51265;53.972;12.286;2023-05-29T06:21:52;14.80;;;2.40;;
64826;SDS011;51265;53.972;12.286;2023-05-29T06:24:19;15.95;;;2.78;;
64826;SDS011;51265;53.972;12.286;2023-05-29T06:26:45;19.58;;;3.70;;
64826;SDS011;51265;53.972;12.286;2023-05-29T06:29:12;16.88;;;2.30;;
64826;SDS011;51265;53.972;12.286;2023-05-29T06:31:39;16.33;;;3.00;;
64826;SDS011;51265;53.972;12.286;2023-05-29T06:34:05;20.70;;;3.30;;
64826;SDS011;51265;53.972;12.286;2023-05-29T06:36:32;13.18;;;2.70;;
64826;SDS011;51265;53.972;12.286;2023-05-29T06:38:58;16.42;;;2.67;;
64826;SDS011;51265;53.972;12.286;2023-05-29T06:41:24;15.88;;;3.08;;
64826;SDS011;51265;53.972;12.286;2023-05-29T06:43:51;18.38;;;3.22;;
64826;SDS011;51265;53.972;12.286;2023-05-29T06:46:17;15.15;;;3.38;;
64826;SDS011;51265;53.972;12.286;2023-05-29T06:48:44;14.88;;;2.80;;
64826;SDS011;51265;53.972;12.286;2023-05-29T06:51:11;10.20;;;2.50;;
64826;SDS011;51265;53.972;12.286;2023-05-29T06:53:40;20.45;;;3.40;;
64826;SDS011;51265;53.972;12.286;2023-05-29T06:56:09;23.42;;;3.30;;
64826;SDS011;51265;53.972;12.286;2023-05-29T06:58:36;14.40;;;2.92;;
64826;SDS011;51265;53.972;12.286;2023-05-29T07:01:02;20.02;;;3.78;;
64826;SDS011;51265;53.972;12.286;2023-05-29T07:03:31;17.67;;;4.10;;
64826;SDS011;51265;53.972;12.286;2023-05-29T07:05:58;18.17;;;3.25;;
64826;SDS011;51265;53.972;12.286;2023-05-29T07:08:25;18.02;;;3.28;;
64826;SDS011;51265;53.972;12.286;2023-05-29T07:10:52;14.57;;;2.80;;
64826;SDS011;51265;53.972;12.286;2023-05-29T07:13:20;17.08;;;3.25;;
64826;SDS011;51265;53.972;12.286;2023-05-29T07:15:50;21.67;;;3.05;;
64826;SDS011;51265;53.972;12.286;2023-05-29T07:18:18;22.95;;;3.75;;
64826;SDS011;51265;53.972;12.286;2023-05-29T07:20:45;20.27;;;3.10;;
64826;SDS011;51265;53.972;12.286;2023-05-29T07:23:14;13.30;;;2.67;;
64826;SDS011;51265;53.972;12.286;2023-05-29T07:25:40;10.30;;;2.55;;
64826;SDS011;51265;53.972;12.286;2023-05-29T07:28:06;19.02;;;3.00;;
64826;SDS011;51265;53.972;12.286;2023-05-29T07:30:32;15.38;;;2.88;;
64826;SDS011;51265;53.972;12.286;2023-05-29T07:32:59;16.38;;;3.10;;
64826;SDS011;51265;53.972;12.286;2023-05-29T07:35:25;15.30;;;3.00;;
64826;SDS011;51265;53.972;12.286;2023-05-29T07:37:52;14.27;;;3.10;;
64826;SDS011;51265;53.972;12.286;2023-05-29T07:40:21;13.95;;;2.67;;
64826;SDS011;51265;53.972;12.286;2023-05-29T07:42:57;11.07;;;2.85;;
64826;SDS011;51265;53.972;12.286;2023-05-29T07:45:26;12.75;;;2.70;;
64826;SDS011;51265;53.972;12.286;2023-05-29T07:47:53;12.85;;;3.00;;
64826;SDS011;51265;53.972;12.286;2023-05-29T07:50:19;16.50;;;3.20;;
64826;SDS011;51265;53.972;12.286;2023-05-29T07:52:46;13.48;;;2.75;;
64826;SDS011;51265;53.972;12.286;2023-05-29T07:55:12;12.88;;;2.40;;
64826;SDS011;51265;53.972;12.286;2023-05-29T07:57:39;14.23;;;3.08;;
64826;SDS011;51265;53.972;12.286;2023-05-29T08:00:05;10.00;;;2.90;;
64826;SDS011;51265;53.972;12.286;2023-05-29T08:02:35;13.35;;;2.90;;
64826;SDS011;51265;53.972;12.286;2023-05-29T08:05:20;16.50;;;2.67;;
64826;SDS011;51265;53.972;12.286;2023-05-29T08:07:46;11.63;;;2.72;;
64826;SDS011;51265;53.972;12.286;2023-05-29T08:10:14;16.60;;;3.25;;
64826;SDS011;51265;53.972;12.286;2023-05-29T08:12:40;14.95;;;2.92;;
64826;SDS011;51265;53.972;12.286;2023-05-29T08:15:07;12.98;;;3.05;;
64826;SDS011;51265;53.972;12.286;2023-05-29T08:17:35;15.00;;;3.15;;
64826;SDS011;51265;53.972;12.286;2023-05-29T08:20:01;17.92;;;3.65;;
64826;SDS011;51265;53.972;12.286;2023-05-29T08:22:32;10.40;;;2.50;;
64826;SDS011;51265;53.972;12.286;2023-05-29T08:24:59;20.58;;;3.88;;
64826;SDS011;51265;53.972;12.286;2023-05-29T08:27:25;15.98;;;2.88;;
64826;SDS011;51265;53.972;12.286;2023-05-29T08:29:52;17.08;;;3.05;;
64826;SDS011;51265;53.972;12.286;2023-05-29T08:32:20;15.93;;;3.05;;
64826;SDS011;51265;53.972;12.286;2023-05-29T08:34:47;16.52;;;3.70;;
64826;SDS011;51265;53.972;12.286;2023-05-29T08:37:13;10.20;;;2.35;;
64826;SDS011;51265;53.972;12.286;2023-05-29T08:39:40;14.82;;;3.13;;
64826;SDS011;51265;53.972;12.286;2023-05-29T08:42:12;12.57;;;2.60;;
64826;SDS011;51265;53.972;12.286;2023-05-29T08:44:43;17.10;;;2.85;;
64826;SDS011;51265;53.972;12.286;2023-05-29T08:47:15;9.70;;;2.55;;
64826;SDS011;51265;53.972;12.286;2023-05-29T08:49:50;18.52;;;4.07;;
64826;SDS011;51265;53.972;12.286;2023-05-29T08:52:20;17.13;;;3.55;;
64826;SDS011;51265;53.972;12.286;2023-05-29T08:54:49;14.73;;;3.33;;
64826;SDS011;51265;53.972;12.286;2023-05-29T08:57:15;14.13;;;2.80;;
64826;SDS011;51265;53.972;12.286;2023-05-29T08:59:42;12.52;;;2.42;;
64826;SDS011;51265;53.972;12.286;2023-05-29T09:02:09;14.10;;;2.40;;
64826;SDS011;51265;53.972;12.286;2023-05-29T09:04:38;11.02;;;2.50;;
64826;SDS011;51265;53.972;12.286;2023-05-29T09:07:06;14.50;;;2.80;;
64826;SDS011;51265;53.972;12.286;2023-05-29T09:09:34;16.42;;;3.45;;
64826;SDS011;51265;53.972;12.286;2023-05-29T09:12:00;11.20;;;2.35;;
64826;SDS011;51265;53.972;12.286;2023-05-29T09:14:32;11.07;;;2.53;;
64826;SDS011;51265;53.972;12.286;2023-05-29T09:17:06;13.50;;;3.22;;
64826;SDS011;51265;53.972;12.286;2023-05-29T09:19:34;12.13;;;3.08;;
64826;SDS011;51265;53.972;12.286;2023-05-29T09:22:02;17.25;;;2.85;;
64826;SDS011;51265;53.972;12.286;2023-05-29T09:24:34;9.13;;;2.20;;
64826;SDS011;51265;53.972;12.286;2023-05-29T09:27:02;10.20;;;2.45;;
64826;SDS011;51265;53.972;12.286;2023-05-29T09:29:48;12.43;;;2.50;;
64826;SDS011;51265;53.972;12.286;2023-05-29T09:32:17;6.65;;;1.92;;
64826;SDS011;51265;53.972;12.286;2023-05-29T09:34:44;10.27;;;2.17;;
64826;SDS011;51265;53.972;12.286;2023-05-29T09:37:10;8.40;;;2.17;;
64826;SDS011;51265;53.972;12.286;2023-05-29T09:42:07;18.40;;;2.75;;
64826;SDS011;51265;53.972;12.286;2023-05-29T09:44:34;11.13;;;2.40;;
64826;SDS011;51265;53.972;12.286;2023-05-29T09:47:00;9.70;;;2.20;;
64826;SDS011;51265;53.972;12.286;2023-05-29T09:49:27;9.13;;;2.50;;
64826;SDS011;51265;53.972;12.286;2023-05-29T09:51:54;14.95;;;2.70;;
64826;SDS011;51265;53.972;12.286;2023-05-29T09:54:20;40.42;;;3.47;;
64826;SDS011;51265;53.972;12.286;2023-05-29T09:56:47;7.05;;;1.70;;
64826;SDS011;51265;53.972;12.286;2023-05-29T09:59:14;9.60;;;1.63;;
64826;SDS011;51265;53.972;12.286;2023-05-29T10:01:42;11.00;;;2.85;;
64826;SDS011;51265;53.972;12.286;2023-05-29T10:04:10;10.35;;;2.67;;
64826;SDS011;51265;53.972;12.286;2023-05-29T10:06:37;10.02;;;2.25;;
64826;SDS011;51265;53.972;12.286;2023-05-29T10:09:06;9.10;;;2.13;;
64826;SDS011;51265;53.972;12.286;2023-05-29T10:11:37;8.80;;;2.10;;
64826;SDS011;51265;53.972;12.286;2023-05-29T10:14:03;10.85;;;1.75;;
64826;SDS011;51265;53.972;12.286;2023-05-29T10:16:33;9.93;;;2.33;;
64826;SDS011;51265;53.972;12.286;2023-05-29T10:19:07;7.90;;;2.15;;
64826;SDS011;51265;53.972;12.286;2023-05-29T10:21:39;10.27;;;1.88;;
64826;SDS011;51265;53.972;12.286;2023-05-29T10:24:07;8.60;;;1.77;;
64826;SDS011;51265;53.972;12.286;2023-05-29T10:26:36;12.18;;;1.90;;
64826;SDS011;51265;53.972;12.286;2023-05-29T10:29:17;8.95;;;2.13;;
64826;SDS011;51265;53.972;12.286;2023-05-29T10:34:42;8.85;;;2.30;;
64826;SDS011;51265;53.972;12.286;2023-05-29T10:37:28;10.55;;;2.00;;
64826;SDS011;51265;53.972;12.286;2023-05-29T10:40:10;7.85;;;1.83;;
64826;SDS011;51265;53.972;12.286;2023-05-29T10:42:46;8.30;;;2.13;;
64826;SDS011;51265;53.972;12.286;2023-05-29T10:45:47;6.38;;;1.75;;
64826;SDS011;51265;53.972;12.286;2023-05-29T10:50:45;9.80;;;1.88;;
64826;SDS011;51265;53.972;12.286;2023-05-29T10:53:23;7.57;;;1.98;;
64826;SDS011;51265;53.972;12.286;2023-05-29T10:55:52;8.13;;;2.22;;
64826;SDS011;51265;53.972;12.286;2023-05-29T11:00:50;10.88;;;1.85;;
64826;SDS011;51265;53.972;12.286;2023-05-29T11:03:22;14.32;;;2.03;;
64826;SDS011;51265;53.972;12.286;2023-05-29T11:06:07;6.05;;;1.63;;
64826;SDS011;51265;53.972;12.286;2023-05-29T11:08:47;5.70;;;1.77;;
64826;SDS011;51265;53.972;12.286;2023-05-29T11:13:54;5.43;;;1.58;;
64826;SDS011;51265;53.972;12.286;2023-05-29T11:18:54;7.88;;;1.70;;
64826;SDS011;51265;53.972;12.286;2023-05-29T11:21:22;9.20;;;1.92;;
64826;SDS011;51265;53.972;12.286;2023-05-29T11:24:00;5.68;;;1.40;;
64826;SDS011;51265;53.972;12.286;2023-05-29T11:26:36;5.32;;;1.55;;
64826;SDS011;51265;53.972;12.286;2023-05-29T11:29:04;6.97;;;1.70;;
64826;SDS011;51265;53.972;12.286;2023-05-29T11:31:32;4.20;;;1.38;;
64826;SDS011;51265;53.972;12.286;2023-05-29T11:34:00;6.93;;;1.98;;
64826;SDS011;51265;53.972;12.286;2023-05-29T11:36:32;7.53;;;2.20;;
64826;SDS011;51265;53.972;12.286;2023-05-29T11:39:00;6.63;;;1.65;;
64826;SDS011;51265;53.972;12.286;2023-05-29T11:41:27;7.72;;;1.40;;
64826;SDS011;51265;53.972;12.286;2023-05-29T11:43:56;6.70;;;1.80;;
64826;SDS011;51265;53.972;12.286;2023-05-29T11:46:28;6.95;;;1.55;;
64826;SDS011;51265;53.972;12.286;2023-05-29T11:48:58;11.65;;;2.05;;
64826;SDS011;51265;53.972;12.286;2023-05-29T11:51:25;5.50;;;1.48;;
64826;SDS011;51265;53.972;12.286;2023-05-29T11:53:52;4.57;;;1.52;;
64826;SDS011;51265;53.972;12.286;2023-05-29T11:56:24;7.82;;;1.80;;
64826;SDS011;51265;53.972;12.286;2023-05-29T11:58:51;7.20;;;1.70;;
64826;SDS011;51265;53.972;12.286;2023-05-29T12:01:23;6.28;;;1.55;;
64826;SDS011;51265;53.972;12.286;2023-05-29T12:03:50;8.50;;;1.70;;
64826;SDS011;51265;53.972;12.286;2023-05-29T12:06:33;10.88;;;2.60;;
64826;SDS011;51265;53.972;12.286;2023-05-29T12:09:01;7.43;;;1.55;;
64826;SDS011;51265;53.972;12.286;2023-05-29T12:11:29;8.25;;;1.63;;
64826;SDS011;51265;53.972;12.286;2023-05-29T12:13:59;7.88;;;1.75;;
64826;SDS011;51265;53.972;12.286;2023-05-29T12:16:28;7.47;;;1.67;;
64826;SDS011;51265;53.972;12.286;2023-05-29T12:18:58;6.65;;;1.60;;
64826;SDS011;51265;53.972;12.286;2023-05-29T12:21:26;7.47;;;1.50;;
64826;SDS011;51265;53.972;12.286;2023-05-29T12:23:53;11.20;;;2.35;;
64826;SDS011;51265;53.972;12.286;2023-05-29T12:26:23;13.50;;;1.70;;
64826;SDS011;51265;53.972;12.286;2023-05-29T12:28:51;10.38;;;1.80;;
64826;SDS011;51265;53.972;12.286;2023-05-29T12:31:27;6.53;;;1.58;;
64826;SDS011;51265;53.972;12.286;2023-05-29T12:33:59;10.43;;;2.17;;
64826;SDS011;51265;53.972;12.286;2023-05-29T12:36:26;7.10;;;2.00;;
64826;SDS011;51265;53.972;12.286;2023-05-29T12:38:53;6.50;;;1.50;;
64826;SDS011;51265;53.972;12.286;2023-05-29T12:43:53;7.00;;;2.05;;
64826;SDS011;51265;53.972;12.286;2023-05-29T12:46:21;6.68;;;2.15;;
64826;SDS011;51265;53.972;12.286;2023-05-29T12:48:47;5.40;;;1.83;;
64826;SDS011;51265;53.972;12.286;2023-05-29T12:51:13;4.97;;;1.40;;
64826;SDS011;51265;53.972;12.286;2023-05-29T12:53:40;6.22;;;1.65;;
64826;SDS011;51265;53.972;12.286;2023-05-29T12:56:06;5.55;;;1.70;;
64826;SDS011;51265;53.972;12.286;2023-05-29T12:58:32;10.68;;;1.98;;
64826;SDS011;51265;53.972;12.286;2023-05-29T13:00:58;7.10;;;2.00;;
64826;SDS011;51265;53.972;12.286;2023-05-29T13:03:24;7.68;;;1.60;;
64826;SDS011;51265;53.972;12.286;2023-05-29T13:05:51;5.25;;;1.60;;
64826;SDS011;51265;53.972;12.286;2023-05-29T13:08:19;4.13;;;1.35;;
64826;SDS011;51265;53.972;12.286;2023-05-29T13:10:45;5.88;;;2.92;;
64826;SDS011;51265;53.972;12.286;2023-05-29T13:13:11;5.78;;;2.60;;
64826;SDS011;51265;53.972;12.286;2023-05-29T13:15:38;3.90;;;1.25;;
64826;SDS011;51265;53.972;12.286;2023-05-29T13:18:06;3.88;;;1.20;;
64826;SDS011;51265;53.972;12.286;2023-05-29T13:20:32;6.75;;;1.67;;
64826;SDS011;51265;53.972;12.286;2023-05-29T13:22:58;6.35;;;1.60;;
64826;SDS011;51265;53.972;12.286;2023-05-29T13:25:25;5.82;;;1.52;;
64826;SDS011;51265;53.972;12.286;2023-05-29T13:27:51;9.07;;;1.88;;
64826;SDS011;51265;53.972;12.286;2023-05-29T13:30:18;4.85;;;1.35;;
64826;SDS011;51265;53.972;12.286;2023-05-29T13:32:44;4.40;;;1.02;;
64826;SDS011;51265;53.972;12.286;2023-05-29T13:35:11;4.07;;;1.48;;
64826;SDS011;51265;53.972;12.286;2023-05-29T13:37:37;8.25;;;1.50;;
64826;SDS011;51265;53.972;12.286;2023-05-29T13:40:04;4.65;;;1.50;;
64826;SDS011;51265;53.972;12.286;2023-05-29T13:42:32;6.72;;;1.45;;
64826;SDS011;51265;53.972;12.286;2023-05-29T13:44:59;4.97;;;1.70;;
64826;SDS011;51265;53.972;12.286;2023-05-29T13:47:25;6.45;;;1.58;;
64826;SDS011;51265;53.972;12.286;2023-05-29T13:49:54;5.80;;;1.35;;
64826;SDS011;51265;53.972;12.286;2023-05-29T13:52:20;6.47;;;1.20;;
64826;SDS011;51265;53.972;12.286;2023-05-29T13:54:46;3.03;;;0.82;;
64826;SDS011;51265;53.972;12.286;2023-05-29T13:57:13;4.20;;;1.20;;
64826;SDS011;51265;53.972;12.286;2023-05-29T13:59:39;8.60;;;1.40;;
64826;SDS011;51265;53.972;12.286;2023-05-29T14:02:05;4.47;;;1.10;;
64826;SDS011;51265;53.972;12.286;2023-05-29T14:04:31;4.22;;;1.27;;
64826;SDS011;51265;53.972;12.286;2023-05-29T14:06:58;8.73;;;1.38;;
64826;SDS011;51265;53.972;12.286;2023-05-29T14:09:24;2.97;;;1.25;;
64826;SDS011;51265;53.972;12.286;2023-05-29T14:11:54;4.95;;;0.95;;
64826;SDS011;51265;53.972;12.286;2023-05-29T14:14:21;2.55;;;1.02;;
64826;SDS011;51265;53.972;12.286;2023-05-29T14:16:48;4.55;;;1.00;;
64826;SDS011;51265;53.972;12.286;2023-05-29T14:19:15;4.00;;;1.05;;
64826;SDS011;51265;53.972;12.286;2023-05-29T14:21:41;4.57;;;1.13;;
64826;SDS011;51265;53.972;12.286;2023-05-29T14:24:08;3.50;;;1.23;;
64826;SDS011;51265;53.972;12.286;2023-05-29T14:26:34;4.88;;;1.33;;
64826;SDS011;51265;53.972;12.286;2023-05-29T14:29:01;5.80;;;1.15;;
64826;SDS011;51265;53.972;12.286;2023-05-29T14:31:28;4.32;;;1.38;;
64826;SDS011;51265;53.972;12.286;2023-05-29T14:33:54;2.25;;;0.98;;
64826;SDS011;51265;53.972;12.286;2023-05-29T14:36:20;3.63;;;0.88;;
64826;SDS011;51265;53.972;12.286;2023-05-29T14:38:47;4.85;;;1.27;;
64826;SDS011;51265;53.972;12.286;2023-05-29T14:41:15;3.38;;;0.95;;
64826;SDS011;51265;53.972;12.286;2023-05-29T14:43:42;3.53;;;1.20;;
64826;SDS011;51265;53.972;12.286;2023-05-29T14:46:08;3.42;;;1.25;;
64826;SDS011;51265;53.972;12.286;2023-05-29T14:48:35;4.07;;;1.23;;
64826;SDS011;51265;53.972;12.286;2023-05-29T14:51:01;4.00;;;0.85;;
64826;SDS011;51265;53.972;12.286;2023-05-29T14:53:27;2.92;;;1.00;;
64826;SDS011;51265;53.972;12.286;2023-05-29T14:55:54;5.80;;;1.40;;